Time;durP1;ratioP1;P1;durP2;ratioP2;P2;SDS_P1;SDS_P2;PMS_P1;PMS_P2;Temp;Humidity;BMP_temperature;BMP_pressure;BME280_temperature;BME280_humidity;BME280_pressure;Samples;Min_cycle;Max_cycle;Signal;HPM_P1;HPM_P2
2024/03/30 00:00:51;;;;;;;;;;;;;;;10.56;100.00;99889.04;109457;1251;72707;-56
2024/03/30 00:03:19;;;;;;;8.10;3.60;;;;;;;10.58;100.00;99895.80;109420;1250;60433;-56
2024/03/30 00:05:46;;;;;;;7.00;3.10;;;;;;;10.59;100.00;99900.13;109397;1251;60333;-56
2024/03/30 00:08:14;;;;;;;4.90;2.90;;;;;;;10.60;100.00;99902.62;109447;1251;75541;-56
2024/03/30 00:10:41;;;;;;;6.40;3.00;;;;;;;10.61;100.00;99909.09;109446;1250;65730;-55
2024/03/30 00:13:09;;;;;;;6.90;3.80;;;;;;;10.64;100.00;99914.86;109427;1251;72504;-56
2024/03/30 00:15:37;;;;;;;4.90;3.00;;;;;;;10.66;100.00;99922.26;109398;1251;60067;-61
2024/03/30 00:18:04;;;;;;;7.30;3.40;;;;;;;10.69;100.00;99928.66;109427;1251;59789;-57
2024/03/30 00:20:32;;;;;;;6.20;3.00;;;;;;;10.73;100.00;99937.02;109505;1251;75538;-56
2024/03/30 00:22:59;;;;;;;6.90;3.70;;;;;;;10.77;100.00;99939.58;109438;1251;69352;-56
2024/03/30 00:25:27;;;;;;;6.80;4.00;;;;;;;10.80;100.00;99943.36;109435;1251;73191;-56
2024/03/30 00:27:54;;;;;;;6.20;4.10;;;;;;;10.83;100.00;99948.42;109382;1251;60462;-57
2024/03/30 00:30:23;;;;;;;9.50;4.10;;;;;;;10.86;100.00;99948.41;109421;1251;60465;-56
2024/03/30 00:32:51;;;;;;;8.80;4.50;;;;;;;10.87;100.00;99951.33;109419;1251;74249;-57
2024/03/30 00:35:18;;;;;;;6.90;3.90;;;;;;;10.89;100.00;99952.56;109468;1250;65221;-54
2024/03/30 00:37:47;;;;;;;7.10;4.00;;;;;;;10.90;100.00;99957.73;109404;1251;73724;-55
2024/03/30 00:40:15;;;;;;;7.90;4.00;;;;;;;10.91;100.00;99961.48;109405;1251;61721;-54
2024/03/30 00:42:42;;;;;;;7.40;4.10;;;;;;;10.90;100.00;99964.51;109426;1250;60111;-55
2024/03/30 00:45:26;;;;;;;9.20;4.60;;;;;;;10.90;100.00;99967.36;109362;1251;74522;-55
2024/03/30 00:47:54;;;;;;;8.00;3.80;;;;;;;10.90;100.00;99981.08;109429;1251;66213;-55
2024/03/30 00:50:21;;;;;;;7.40;4.60;;;;;;;10.89;100.00;99989.83;109398;1251;72744;-54
2024/03/30 00:52:49;;;;;;;8.20;4.20;;;;;;;10.86;100.00;99994.50;109414;1251;60645;-55
2024/03/30 00:55:16;;;;;;;8.70;4.50;;;;;;;10.84;100.00;99995.90;109461;1251;60097;-56
2024/03/30 00:57:44;;;;;;;7.20;5.00;;;;;;;10.82;100.00;99996.48;109412;1251;74807;-55
2024/03/30 01:00:14;;;;;;;10.20;5.20;;;;;;;10.81;100.00;100002.25;109393;1256;66997;-54
2024/03/30 01:02:42;;;;;;;9.00;4.80;;;;;;;10.79;100.00;100013.20;109406;1250;72704;-55
2024/03/30 01:05:09;;;;;;;6.10;4.40;;;;;;;10.79;100.00;100009.09;109457;1250;60052;-55
2024/03/30 01:07:37;;;;;;;9.40;4.60;;;;;;;10.79;100.00;100014.95;109428;1250;60185;-54
2024/03/30 01:10:06;;;;;;;8.20;4.90;;;;;;;10.81;100.00;100017.58;109467;1250;75910;-56
2024/03/30 01:12:34;;;;;;;8.00;4.80;;;;;;;10.79;100.00;100024.73;109491;1250;66955;-55
2024/03/30 01:15:02;;;;;;;7.50;5.00;;;;;;;10.78;100.00;100025.02;109457;1249;72703;-54
2024/03/30 01:17:30;;;;;;;8.30;5.00;;;;;;;10.77;100.00;100026.02;109434;1250;60932;-55
2024/03/30 01:19:57;;;;;;;8.10;4.70;;;;;;;10.74;100.00;100028.44;109426;1250;60881;-55
2024/03/30 01:22:25;;;;;;;10.10;4.90;;;;;;;10.69;100.00;100035.34;109503;1249;75507;-56
2024/03/30 01:24:53;;;;;;;10.80;5.10;;;;;;;10.64;100.00;100039.55;109470;1249;66897;-55
2024/03/30 01:27:21;;;;;;;8.50;4.60;;;;;;;10.62;100.00;100040.42;109482;1250;71820;-55
2024/03/30 01:29:48;;;;;;;8.30;5.30;;;;;;;10.60;100.00;100041.15;109316;1249;60276;-55
2024/03/30 01:32:16;;;;;;;11.10;5.00;;;;;;;10.59;100.00;100047.13;109533;1250;60055;-56
2024/03/30 01:34:44;;;;;;;8.20;4.80;;;;;;;10.59;100.00;100052.66;109419;1250;73510;-55
2024/03/30 01:37:11;;;;;;;8.30;5.00;;;;;;;10.59;100.00;100052.54;109456;1253;66960;-55
2024/03/30 01:39:39;;;;;;;9.20;4.70;;;;;;;10.58;100.00;100051.45;109465;1250;71448;-54
2024/03/30 01:42:06;;;;;;;8.60;4.80;;;;;;;10.56;100.00;100056.85;109393;1250;59770;-58
2024/03/30 01:44:33;;;;;;;10.20;5.20;;;;;;;10.56;100.00;100059.00;109456;1250;60045;-55
2024/03/30 01:47:01;;;;;;;8.50;4.80;;;;;;;10.56;100.00;100065.02;109512;1249;74297;-54
2024/03/30 01:49:28;;;;;;;9.20;4.90;;;;;;;10.58;100.00;100069.38;109426;1250;65630;-56
2024/03/30 01:51:57;;;;;;;8.10;5.10;;;;;;;10.59;100.00;100069.86;109466;1250;72819;-56
2024/03/30 01:54:24;;;;;;;8.80;5.20;;;;;;;10.60;100.00;100075.52;109299;1250;61839;-59
2024/03/30 01:56:52;;;;;;;11.00;5.60;;;;;;;10.59;100.00;100084.46;109500;1250;59743;-56
2024/03/30 01:59:19;;;;;;;9.30;5.80;;;;;;;10.59;100.00;100090.80;109497;1250;75953;-56
2024/03/30 02:01:47;;;;;;;8.40;5.50;;;;;;;10.58;100.00;100096.68;109411;1250;65650;-55
2024/03/30 02:04:15;;;;;;;8.30;5.60;;;;;;;10.58;100.00;100103.27;109432;1250;71403;-55
2024/03/30 02:06:42;;;;;;;10.60;4.80;;;;;;;10.58;100.00;100115.25;109388;1250;60472;-55
2024/03/30 02:09:10;;;;;;;7.80;4.90;;;;;;;10.58;100.00;100122.52;109385;1250;60071;-55
2024/03/30 02:11:39;;;;;;;8.50;4.60;;;;;;;10.59;100.00;100132.45;109552;1250;74208;-55
2024/03/30 02:14:07;;;;;;;8.10;4.70;;;;;;;10.61;100.00;100136.46;109449;1250;67124;-55
2024/03/30 02:16:35;;;;;;;9.50;5.30;;;;;;;10.63;100.00;100139.88;109412;1251;71522;-56
2024/03/30 02:19:06;;;;;;;9.10;5.30;;;;;;;10.63;100.00;100145.69;109366;1250;60116;-55
2024/03/30 02:21:33;;;;;;;7.20;5.00;;;;;;;10.63;100.00;100148.70;109322;1249;60110;-55
2024/03/30 02:24:00;;;;;;;8.30;5.10;;;;;;;10.62;100.00;100149.45;109458;1250;75514;-55
2024/03/30 02:26:29;;;;;;;9.60;5.20;;;;;;;10.61;100.00;100158.88;109490;1250;65731;-56
2024/03/30 02:28:57;;;;;;;9.00;5.00;;;;;;;10.56;100.00;100166.71;109424;1249;72709;-55
2024/03/30 02:31:24;;;;;;;8.30;4.90;;;;;;;10.56;100.00;100161.05;109436;1251;61694;-55
2024/03/30 02:33:52;;;;;;;7.60;4.30;;;;;;;10.54;100.00;100170.67;109516;1250;60047;-55
2024/03/30 02:36:19;;;;;;;8.30;4.60;;;;;;;10.51;100.00;100179.05;109491;1250;73432;-55
2024/03/30 02:38:47;;;;;;;6.80;4.30;;;;;;;10.46;100.00;100183.21;109496;1250;66991;-55
2024/03/30 02:41:14;;;;;;;6.80;4.30;;;;;;;10.42;100.00;100187.83;109463;1250;73262;-54
2024/03/30 02:43:42;;;;;;;7.10;4.50;;;;;;;10.41;100.00;100192.81;109436;1250;62260;-55
2024/03/30 02:46:09;;;;;;;8.10;4.40;;;;;;;10.40;100.00;100194.85;109507;1250;59701;-55
2024/03/30 02:48:37;;;;;;;7.30;4.60;;;;;;;10.39;100.00;100195.80;109501;1250;74524;-54
2024/03/30 02:51:05;;;;;;;6.60;4.20;;;;;;;10.37;100.00;100208.20;109494;1250;67234;-55
2024/03/30 02:53:32;;;;;;;7.90;4.20;;;;;;;10.35;100.00;100216.88;109450;1250;72810;-55
2024/03/30 02:55:59;;;;;;;7.80;4.00;;;;;;;10.32;100.00;100219.61;109492;1250;61677;-55
2024/03/30 02:58:27;;;;;;;6.50;3.80;;;;;;;10.32;100.00;100219.52;109491;1249;59681;-55
2024/03/30 03:00:54;;;;;;;6.20;3.70;;;;;;;10.32;100.00;100216.92;109459;1250;74597;-56
2024/03/30 03:03:23;;;;;;;6.90;3.80;;;;;;;10.31;100.00;100210.93;109485;1250;67390;-55
2024/03/30 03:05:57;;;;;;;5.80;3.90;;;;;;;10.30;100.00;100212.40;109425;1250;71925;-55
2024/03/30 03:08:27;;;;;;;5.50;3.90;;;;;;;10.28;100.00;100213.67;109494;1250;60979;-55
2024/03/30 03:10:54;;;;;;;4.70;3.20;;;;;;;10.26;100.00;100217.73;109460;1250;59778;-55
2024/03/30 03:13:22;;;;;;;7.30;3.10;;;;;;;10.25;100.00;100223.27;109512;1250;75552;-55
2024/03/30 03:15:49;;;;;;;4.90;3.00;;;;;;;10.24;100.00;100223.16;109505;1250;65784;-54
2024/03/30 03:18:16;;;;;;;6.40;3.40;;;;;;;10.22;100.00;100222.50;109430;1250;72765;-55
2024/03/30 03:20:44;;;;;;;6.70;3.40;;;;;;;10.19;100.00;100226.70;109450;1249;61649;-55
2024/03/30 03:23:11;;;;;;;5.60;3.30;;;;;;;10.16;100.00;100232.21;109512;1250;60547;-54
2024/03/30 03:25:39;;;;;;;6.70;3.40;;;;;;;10.14;100.00;100241.11;109475;1250;74800;-55
2024/03/30 03:28:06;;;;;;;5.90;3.40;;;;;;;10.12;100.00;100249.35;109436;1250;67007;-55
2024/03/30 03:30:34;;;;;;;6.90;3.80;;;;;;;10.11;100.00;100255.54;109482;1250;71426;-58
2024/03/30 03:33:01;;;;;;;5.00;3.40;;;;;;;10.11;100.00;100262.52;109414;1249;61671;-55
2024/03/30 03:35:28;;;;;;;4.90;3.10;;;;;;;10.10;100.00;100272.46;109490;1251;60276;-55
2024/03/30 03:37:56;;;;;;;5.70;3.60;;;;;;;10.04;100.00;100278.64;109471;1250;73704;-55
2024/03/30 03:40:23;;;;;;;6.40;3.60;;;;;;;10.01;100.00;100284.28;109524;1250;66090;-55
2024/03/30 03:42:51;;;;;;;5.10;3.40;;;;;;;9.96;100.00;100288.52;109442;1250;71351;-55
2024/03/30 03:45:18;;;;;;;4.30;2.90;;;;;;;9.96;100.00;100302.45;109423;1250;62307;-54
2024/03/30 03:47:46;;;;;;;6.10;3.40;;;;;;;9.97;100.00;100305.98;109519;1250;59676;-55
2024/03/30 03:50:13;;;;;;;6.00;3.10;;;;;;;10.02;100.00;100301.77;109508;1250;75533;-55
2024/03/30 03:52:41;;;;;;;4.70;2.80;;;;;;;10.09;100.00;100302.02;109542;1250;65737;-57
2024/03/30 03:55:08;;;;;;;5.40;2.50;;;;;;;10.20;100.00;100310.81;109387;1250;71660;-54
2024/03/30 03:57:35;;;;;;;4.70;2.70;;;;;;;10.44;100.00;100321.34;109464;1250;60436;-55
2024/03/30 04:00:03;;;;;;;5.90;3.10;;;;;;;10.96;100.00;100321.16;109502;1249;60109;-55
2024/03/30 04:02:37;;;;;;;5.80;3.00;;;;;;;11.57;100.00;100321.95;109459;1250;75510;-55
2024/03/30 04:05:05;;;;;;;5.30;2.60;;;;;;;12.37;100.00;100320.23;109498;1250;67247;-59
2024/03/30 04:07:32;;;;;;;3.90;2.40;;;;;;;13.27;100.00;100318.67;109530;1250;72729;-54
2024/03/30 04:09:59;;;;;;;5.50;3.40;;;;;;;14.11;100.00;100315.30;109468;1250;60204;-54
2024/03/30 04:12:28;;;;;;;5.90;3.20;;;;;;;14.81;100.00;100311.23;109465;1250;60113;-55
2024/03/30 04:14:56;;;;;;;4.70;2.80;;;;;;;15.47;100.00;100303.77;109505;1249;75521;-55
2024/03/30 04:17:23;;;;;;;5.20;3.00;;;;;;;16.02;100.00;100291.83;109434;1250;66845;-56
2024/03/30 04:19:51;;;;;;;5.60;2.80;;;;;;;16.63;100.00;100283.01;109488;1250;72504;-55
2024/03/30 04:22:18;;;;;;;3.90;2.40;;;;;;;17.29;100.00;100266.42;109453;1250;60249;-56
2024/03/30 04:24:45;;;;;;;4.10;3.00;;;;;;;17.82;100.00;100244.73;109542;1250;60196;-55
2024/03/30 04:27:13;;;;;;;5.10;3.50;;;;;;;18.13;100.00;100223.19;109366;1249;76034;-59
2024/03/30 04:29:40;;;;;;;3.50;2.50;;;;;;;18.48;100.00;100209.91;109466;1250;66428;-55
2024/03/30 04:32:08;;;;;;;4.40;2.60;;;;;;;18.99;100.00;100200.04;109467;1250;71356;-55
2024/03/30 04:34:36;;;;;;;5.00;3.00;;;;;;;19.61;100.00;100198.21;109500;1250;60206;-55
2024/03/30 04:37:04;;;;;;;4.80;2.90;;;;;;;20.40;100.00;100189.60;109526;1250;60039;-55
2024/03/30 04:39:31;;;;;;;4.60;2.90;;;;;;;20.96;100.00;100184.67;109434;1250;75420;-56
2024/03/30 04:41:59;;;;;;;5.20;2.80;;;;;;;21.44;100.00;100187.73;109519;1250;65862;-55
2024/03/30 04:44:27;;;;;;;5.00;3.20;;;;;;;21.75;100.00;100194.55;109475;1250;72800;-55
2024/03/30 04:46:54;;;;;;;6.30;3.20;;;;;;;21.87;100.00;100204.48;109498;1250;61124;-55
2024/03/30 04:49:21;;;;;;;4.80;2.80;;;;;;;21.42;100.00;100208.94;109481;1250;59661;-58
2024/03/30 04:51:49;;;;;;;4.40;2.90;;;;;;;20.33;100.00;100205.04;109402;1250;73472;-56
2024/03/30 04:54:16;;;;;;;6.00;2.80;;;;;;;19.39;100.00;100215.95;109546;1250;67439;-56
2024/03/30 04:56:44;;;;;;;5.10;3.00;;;;;;;19.05;100.00;100216.20;109485;1250;72692;-56
2024/03/30 04:59:11;;;;;;;8.00;3.60;;;;;;;19.16;100.00;100218.55;109493;1250;60065;-55
2024/03/30 05:01:40;;;;;;;4.40;3.10;;;;;;;19.60;100.00;100221.44;109494;1250;59831;-59
2024/03/30 05:04:07;;;;;;;4.30;2.90;;;;;;;20.07;100.00;100231.88;109534;1250;76031;-56
2024/03/30 05:06:35;;;;;;;5.30;3.00;;;;;;;20.66;100.00;100230.40;109519;1249;67522;-55
2024/03/30 05:09:02;;;;;;;4.00;2.60;;;;;;;21.13;100.00;100227.91;109514;1250;71452;-55
2024/03/30 05:11:30;;;;;;;4.30;2.50;;;;;;;21.42;100.00;100234.83;109529;1250;60525;-55
2024/03/30 05:13:57;;;;;;;4.90;3.10;;;;;;;21.70;100.00;100241.30;109460;1250;59720;-58
2024/03/30 05:16:24;;;;;;;4.00;2.50;;;;;;;21.85;100.00;100243.84;109519;1250;75508;-55
2024/03/30 05:18:52;;;;;;;4.70;3.10;;;;;;;21.92;100.00;100251.67;109486;1250;66949;-56
2024/03/30 05:21:20;;;;;;;5.50;3.20;;;;;;;21.93;100.00;100262.66;109453;1252;73451;-55
2024/03/30 05:23:49;;;;;;;4.60;3.10;;;;;;;21.76;100.00;100261.51;109447;1250;60458;-59
2024/03/30 05:26:17;;;;;;;6.90;2.90;;;;;;;21.27;100.00;100267.58;109550;1252;60093;-55
2024/03/30 05:28:44;;;;;;;4.30;2.60;;;;;;;20.64;100.00;100270.06;109502;1249;75505;-55
2024/03/30 05:31:21;;;;;;;5.10;2.90;;;;;;;20.04;100.00;100282.88;109496;1250;67069;-55
2024/03/30 05:33:49;;;;;;;5.60;3.00;;;;;;;19.68;100.00;100284.88;109370;1254;71458;-57
2024/03/30 05:36:17;;;;;;;4.90;2.80;;;;;;;19.67;100.00;100287.66;109501;1251;59785;-56
2024/03/30 05:38:44;;;;;;;5.90;2.90;;;;;;;19.63;100.00;100286.60;109525;1250;60183;-55
2024/03/30 05:41:12;;;;;;;4.80;2.70;;;;;;;19.40;100.00;100294.47;109491;1250;74557;-55
2024/03/30 05:43:39;;;;;;;5.40;2.70;;;;;;;19.07;100.00;100300.42;109486;1250;67026;-59
2024/03/30 05:46:07;;;;;;;5.90;3.00;;;;;;;18.83;100.00;100303.05;109481;1250;72641;-55
2024/03/30 05:48:34;;;;;;;4.60;2.90;;;;;;;18.74;100.00;100303.62;109464;1250;60242;-55
2024/03/30 05:51:02;;;;;;;4.00;2.90;;;;;;;18.59;100.00;100302.66;109526;1250;60064;-55
2024/03/30 05:53:29;;;;;;;5.60;3.10;;;;;;;18.32;100.00;100308.20;109569;1250;75527;-55
2024/03/30 05:55:57;;;;;;;4.90;2.90;;;;;;;18.14;100.00;100308.67;109496;1250;67534;-58
2024/03/30 05:58:24;;;;;;;7.10;2.80;;;;;;;18.08;100.00;100311.94;109490;1250;70673;-55
2024/03/30 06:00:52;;;;;;;4.30;2.80;;;;;;;18.11;100.00;100321.76;109392;1252;59742;-55
2024/03/30 06:03:19;;;;;;;4.90;2.70;;;;;;;18.22;100.00;100323.56;109497;1250;60116;-55
2024/03/30 06:05:49;;;;;;;4.30;2.20;;;;;;;18.31;100.00;100326.57;109442;1250;74220;-56
2024/03/30 06:08:16;;;;;;;5.50;2.50;;;;;;;18.39;100.00;100326.58;109495;1250;65596;-55
2024/03/30 06:10:44;;;;;;;3.40;2.30;;;;;;;18.47;100.00;100334.70;109495;1250;72687;-55
2024/03/30 06:13:11;;;;;;;4.70;2.70;;;;;;;18.53;100.00;100337.40;109498;1250;59757;-55
2024/03/30 06:15:39;;;;;;;4.90;2.60;;;;;;;18.52;100.00;100328.61;109463;1250;60270;-56
2024/03/30 06:18:06;;;;;;;3.30;2.00;;;;;;;18.46;100.00;100331.20;109432;1250;74729;-56
2024/03/30 06:20:34;;;;;;;4.90;2.40;;;;;;;18.57;100.00;100329.41;109560;1249;67087;-56
2024/03/30 06:23:02;;;;;;;5.60;2.80;;;;;;;18.84;100.00;100334.13;109535;1250;72758;-55
2024/03/30 06:25:29;;;;;;;4.10;2.10;;;;;;;19.01;100.00;100338.46;109465;1250;59753;-56
2024/03/30 06:27:57;;;;;;;4.70;2.40;;;;;;;19.13;100.00;100335.35;109472;1250;60104;-56
2024/03/30 06:30:24;;;;;;;4.50;2.40;;;;;;;19.32;100.00;100339.48;109469;1250;76288;-56
2024/03/30 06:32:51;;;;;;;4.40;2.40;;;;;;;19.66;100.00;100343.42;109507;1250;66891;-56
2024/03/30 06:35:19;;;;;;;5.20;2.70;;;;;;;20.05;100.00;100341.92;109567;1250;70953;-56
2024/03/30 06:37:46;;;;;;;3.90;2.30;;;;;;;20.55;100.00;100349.58;109493;1250;59698;-56
2024/03/30 06:45:46;;;;;;;3.30;2.10;;;;;;;22.19;100.00;100357.74;109475;1250;67041;-58
2024/03/30 06:48:13;;;;;;;4.50;2.90;;;;;;;22.46;100.00;100360.02;109498;1250;71461;-56
2024/03/30 06:50:41;;;;;;;3.50;1.80;;;;;;;22.74;99.88;100369.33;109456;1252;59754;-56
2024/03/30 06:53:08;;;;;;;3.00;1.80;;;;;;;22.77;97.88;100377.73;109501;1250;60096;-54
2024/03/30 06:55:35;;;;;;;3.20;2.00;;;;;;;22.55;97.54;100377.65;109539;1250;75485;-54
2024/03/30 06:58:03;;;;;;;3.20;1.70;;;;;;;22.25;99.34;100381.21;109502;1250;66209;-57
2024/03/30 07:00:30;;;;;;;3.20;1.60;;;;;;;22.05;100.00;100377.88;109475;1250;71837;-54
2024/03/30 07:02:58;;;;;;;4.10;2.00;;;;;;;21.96;100.00;100383.40;109527;1250;60174;-55
2024/03/30 07:05:25;;;;;;;4.90;2.40;;;;;;;21.89;100.00;100390.25;109527;1250;59835;-55
2024/03/30 07:07:53;;;;;;;3.70;2.20;;;;;;;22.00;100.00;100394.04;109463;1250;74590;-56
2024/03/30 07:10:20;;;;;;;2.90;1.70;;;;;;;22.31;100.00;100390.07;109484;1250;65659;-59
2024/03/30 07:12:49;;;;;;;3.10;1.80;;;;;;;22.56;98.38;100390.94;109472;1253;71393;-56
2024/03/30 07:15:16;;;;;;;3.10;1.80;;;;;;;22.44;96.22;100391.09;109501;1250;60338;-56
2024/03/30 07:17:44;;;;;;;4.30;2.00;;;;;;;22.24;97.36;100389.92;109506;1250;59789;-56
2024/03/30 07:20:11;;;;;;;3.80;1.80;;;;;;;22.11;98.19;100376.65;109476;1250;75546;-58
2024/03/30 07:22:39;;;;;;;2.70;1.50;;;;;;;22.21;99.26;100378.84;109468;1250;65639;-56
2024/03/30 07:25:07;;;;;;;2.20;1.60;;;;;;;22.46;96.82;100383.02;109454;1250;72907;-56
2024/03/30 07:27:35;;;;;;;3.70;1.90;;;;;;;22.73;92.73;100388.23;109470;1250;60258;-56
2024/03/30 07:30:02;;;;;;;3.30;1.50;;;;;;;22.96;90.35;100385.61;109531;1250;60212;-56
2024/03/30 07:32:30;;;;;;;3.00;2.00;;;;;;;23.27;87.88;100384.48;109437;1250;74203;-57
2024/03/30 07:34:57;;;;;;;2.80;1.90;;;;;;;23.50;81.03;100382.42;109504;1250;66003;-56
2024/03/30 07:37:25;;;;;;;3.30;2.20;;;;;;;23.35;79.83;100388.42;109487;1250;72657;-55
2024/03/30 07:39:52;;;;;;;3.20;1.90;;;;;;;23.06;81.63;100400.49;109501;1250;60204;-55
2024/03/30 07:42:20;;;;;;;3.00;1.70;;;;;;;22.90;86.59;100398.03;109527;1256;59815;-57
2024/03/30 07:44:47;;;;;;;2.70;2.00;;;;;;;22.86;86.56;100397.27;109435;1250;75484;-56
2024/03/30 07:47:15;;;;;;;3.50;2.00;;;;;;;22.69;82.68;100391.98;109496;1250;66285;-55
2024/03/30 07:49:42;;;;;;;3.70;1.80;;;;;;;22.37;87.02;100392.38;109483;1250;72602;-56
2024/03/30 07:52:11;;;;;;;2.80;1.90;;;;;;;22.33;90.97;100395.23;109441;1251;59764;-55
2024/03/30 07:54:38;;;;;;;2.90;1.50;;;;;;;22.47;91.23;100396.52;109384;1249;60841;-57
2024/03/30 07:57:06;;;;;;;2.80;2.00;;;;;;;22.73;90.74;100402.80;109527;1250;74232;-56
2024/03/30 07:59:33;;;;;;;3.20;2.00;;;;;;;23.01;88.45;100406.27;109525;1250;67537;-56
2024/03/30 08:02:01;;;;;;;2.80;1.80;;;;;;;23.27;80.78;100412.66;109463;1250;71472;-56
2024/03/30 08:04:28;;;;;;;4.60;2.50;;;;;;;23.40;78.74;100416.08;109479;1250;59858;-59
2024/03/30 08:06:56;;;;;;;2.90;1.70;;;;;;;23.59;76.43;100416.42;109453;1251;60099;-56
2024/03/30 08:09:24;;;;;;;3.20;1.90;;;;;;;23.78;72.12;100423.12;109497;1250;74238;-56
2024/03/30 08:11:51;;;;;;;4.40;2.70;;;;;;;23.90;71.80;100432.38;109583;1250;67004;-57
2024/03/30 08:14:19;;;;;;;4.10;2.40;;;;;;;24.09;69.00;100429.64;109445;1253;71455;-58
2024/03/30 08:16:47;;;;;;;4.00;2.60;;;;;;;24.25;68.50;100426.69;109415;1250;60159;-56
2024/03/30 08:19:16;;;;;;;3.00;1.70;;;;;;;24.40;67.87;100426.62;109575;1250;59673;-56
2024/03/30 08:21:44;;;;;;;3.30;1.70;;;;;;;24.63;66.76;100430.19;109521;1250;76472;-56
2024/03/30 08:24:16;;;;;;;3.20;1.80;;;;;;;24.97;64.07;100434.05;109501;1255;67169;-59
2024/03/30 08:26:43;;;;;;;4.20;2.40;;;;;;;25.25;58.19;100431.73;109494;1250;72625;-56
2024/03/30 08:29:11;;;;;;;2.60;1.80;;;;;;;25.26;58.53;100434.92;109494;1253;60182;-56
2024/03/30 08:31:38;;;;;;;2.80;1.40;;;;;;;25.40;58.96;100439.80;109480;1249;60226;-55
2024/03/30 08:34:06;;;;;;;2.10;1.20;;;;;;;25.63;57.57;100441.02;109542;1250;75468;-57
2024/03/30 08:36:33;;;;;;;3.70;1.30;;;;;;;25.83;54.52;100436.35;109488;1249;68503;-60
2024/03/30 08:39:01;;;;;;;2.60;1.60;;;;;;;26.01;52.69;100436.14;109497;1254;75136;-56
2024/03/30 08:41:28;;;;;;;2.10;1.40;;;;;;;26.19;51.22;100439.45;109463;1250;60630;-57
2024/03/30 08:43:57;;;;;;;3.60;1.30;;;;;;;26.32;48.96;100432.96;109502;1250;59849;-55
2024/03/30 08:46:24;;;;;;;3.30;1.20;;;;;;;26.38;46.77;100424.65;109523;1250;77528;-56
2024/03/30 08:48:52;;;;;;;2.40;1.30;;;;;;;26.25;46.22;100423.09;109439;1254;65872;-56
2024/03/30 08:51:19;;;;;;;2.10;1.30;;;;;;;26.09;46.25;100428.48;109286;1251;74920;-55
2024/03/30 08:53:47;;;;;;;2.30;1.30;;;;;;;26.03;46.96;100433.77;109436;1251;61560;-55
2024/03/30 08:56:14;;;;;;;3.00;1.00;;;;;;;26.13;46.40;100432.29;109511;1251;59856;-55
2024/03/30 08:58:42;;;;;;;1.80;1.10;;;;;;;26.26;46.50;100436.01;109466;1249;76344;-59
2024/03/30 09:01:10;;;;;;;3.10;1.60;;;;;;;26.38;45.37;100433.54;109453;1251;67872;-56
2024/03/30 09:03:37;;;;;;;2.80;1.70;;;;;;;26.45;45.82;100433.89;109479;1251;73117;-56
2024/03/30 09:06:05;;;;;;;2.00;1.30;;;;;;;26.59;45.79;100435.46;109458;1251;62666;-57
2024/03/30 09:08:32;;;;;;;2.30;1.30;;;;;;;26.70;43.45;100432.38;109471;1251;59834;-55
2024/03/30 09:11:00;;;;;;;1.90;1.00;;;;;;;26.72;43.55;100438.14;109461;1251;76818;-55
2024/03/30 09:13:27;;;;;;;1.80;1.10;;;;;;;26.83;42.11;100443.52;109422;1251;68321;-55
2024/03/30 09:15:55;;;;;;;1.70;1.10;;;;;;;26.84;41.52;100441.03;109474;1256;75233;-55
2024/03/30 09:18:23;;;;;;;2.40;1.30;;;;;;;26.77;41.44;100446.70;109496;1251;60095;-57
2024/03/30 09:20:50;;;;;;;3.10;1.30;;;;;;;26.67;40.73;100448.58;109482;1251;59815;-55
2024/03/30 09:23:18;;;;;;;1.70;1.20;;;;;;;26.55;40.15;100444.55;109463;1251;76475;-55
2024/03/30 09:25:46;;;;;;;2.30;1.40;;;;;;;26.55;40.11;100446.15;109443;1251;67840;-55
2024/03/30 09:28:13;;;;;;;2.30;1.60;;;;;;;26.54;40.13;100451.76;109431;1256;75488;-56
2024/03/30 09:30:41;;;;;;;2.00;1.20;;;;;;;26.51;39.23;100457.21;109470;1251;62237;-57
2024/03/30 09:33:08;;;;;;;3.40;2.00;;;;;;;26.32;39.48;100458.02;109442;1251;61266;-57
2024/03/30 09:35:40;;;;;;;3.20;1.90;;;;;;;26.16;39.89;100460.58;109442;1256;77689;-55
2024/03/30 09:38:07;;;;;;;3.80;1.60;;;;;;;26.00;38.73;100461.80;109416;1251;69144;-55
2024/03/30 09:40:35;;;;;;;3.10;1.40;;;;;;;25.77;39.11;100458.45;109482;1251;75263;-55
2024/03/30 09:43:03;;;;;;;2.50;1.60;;;;;;;25.52;39.59;100457.48;109415;1251;62172;-55
2024/03/30 09:45:31;;;;;;;2.40;1.60;;;;;;;25.33;41.27;100461.30;109464;1251;62415;-57
2024/03/30 09:48:03;;;;;;;2.60;1.70;;;;;;;25.34;41.78;100461.23;109437;1251;75282;-54
2024/03/30 09:50:31;;;;;;;6.00;1.80;;;;;;;25.47;42.96;100461.90;109451;1251;68968;-54
2024/03/30 09:52:58;;;;;;;3.10;1.50;;;;;;;25.61;41.49;100466.93;109501;1251;72709;-54
2024/03/30 09:55:27;;;;;;;2.30;1.50;;;;;;;25.73;40.98;100459.86;109435;1251;62217;-56
2024/03/30 09:57:54;;;;;;;2.50;1.50;;;;;;;25.88;41.37;100467.19;109354;1256;61217;-55
2024/03/30 10:00:22;;;;;;;2.80;1.60;;;;;;;26.00;40.66;100464.78;109294;1251;76857;-55
2024/03/30 10:02:49;;;;;;;1.50;1.10;;;;;;;26.09;39.48;100466.63;109489;1251;67669;-55
2024/03/30 10:05:17;;;;;;;3.00;1.40;;;;;;;26.14;39.16;100462.54;109461;1251;74165;-58
2024/03/30 10:08:04;;;;;;;2.40;1.40;;;;;;;26.16;38.87;100460.16;109492;1250;61149;-55
2024/03/30 10:10:34;;;;;;;2.90;1.70;;;;;;;26.28;39.13;100454.63;109407;1249;61281;-55
2024/03/30 10:13:05;;;;;;;2.20;1.30;;;;;;;26.41;38.69;100450.81;109437;1250;78622;-55
2024/03/30 10:15:48;;;;;;;3.50;1.50;;;;;;;26.40;37.12;100449.07;109279;1250;68493;-54
2024/03/30 10:18:16;;;;;;;2.90;1.30;;;;;;;26.10;37.85;100454.77;109484;1251;75328;-56
2024/03/30 10:20:43;;;;;;;3.50;1.80;;;;;;;26.01;39.07;100452.65;109365;1251;61586;-56
2024/03/30 10:23:11;;;;;;;4.00;1.30;;;;;;;26.08;39.30;100453.77;109451;1250;59793;-58
2024/03/30 10:25:49;;;;;;;1.80;1.20;;;;;;;26.23;38.54;100454.25;109250;1249;77558;-56
2024/03/30 10:28:17;;;;;;;3.60;1.20;;;;;;;26.35;37.97;100458.63;109344;1249;68473;-56
2024/03/30 10:30:44;;;;;;;2.80;1.50;;;;;;;26.46;37.88;100462.70;109462;1251;75418;-56
2024/03/30 10:33:14;;;;;;;3.20;1.20;;;;;;;26.63;37.68;100460.60;109361;1251;61172;-59
2024/03/30 10:35:42;;;;;;;3.40;1.30;;;;;;;26.78;36.62;100463.90;109464;1249;60887;-57
2024/03/30 10:38:12;;;;;;;2.60;1.50;;;;;;;26.76;35.30;100464.40;109493;1249;73736;-57
2024/03/30 10:40:42;;;;;;;2.60;1.40;;;;;;;26.68;35.25;100461.88;109469;1255;67906;-56
2024/03/30 10:43:09;;;;;;;2.60;1.30;;;;;;;26.70;35.43;100459.78;109408;1256;75582;-58
2024/03/30 10:45:37;;;;;;;2.40;1.60;;;;;;;26.70;35.65;100461.85;109473;1254;61539;-57
2024/03/30 10:48:05;;;;;;;3.00;1.70;;;;;;;26.65;35.49;100460.31;109527;1250;61500;-56
2024/03/30 10:50:33;;;;;;;2.20;1.30;;;;;;;26.58;35.47;100454.19;109513;1250;77482;-55
2024/03/30 10:53:04;;;;;;;2.90;1.70;;;;;;;26.62;35.46;100455.27;109461;1251;66125;-56
2024/03/30 10:55:37;;;;;;;4.10;2.30;;;;;;;26.75;35.84;100451.42;109429;1250;73606;-55
2024/03/30 10:58:05;;;;;;;4.20;3.40;;;;;;;26.90;34.88;100459.73;109387;1250;61552;-55
2024/03/30 11:00:33;;;;;;;2.70;1.80;;;;;;;26.74;34.79;100457.37;109462;1249;60922;-55
2024/03/30 11:03:00;;;;;;;3.90;1.70;;;;;;;26.38;35.49;100462.77;109476;1251;77480;-56
2024/03/30 11:05:28;;;;;;;2.20;1.40;;;;;;;26.19;36.18;100462.52;109437;1251;68934;-56
2024/03/30 11:07:55;;;;;;;1.70;1.10;;;;;;;26.04;36.75;100467.10;109434;1254;75241;-55
2024/03/30 11:10:26;;;;;;;1.60;1.20;;;;;;;26.02;36.14;100461.68;109428;1252;61517;-56
2024/03/30 11:12:54;;;;;;;3.30;2.30;;;;;;;26.05;36.74;100463.52;109396;1250;59739;-55
2024/03/30 11:15:22;;;;;;;2.80;1.70;;;;;;;26.13;36.46;100459.39;109266;1250;205798;-59
2024/03/30 11:18:02;;;;;;;2.00;1.20;;;;;;;26.10;36.27;100464.58;109357;1249;70448;-55
2024/03/30 11:20:37;;;;;;;2.70;1.60;;;;;;;26.18;36.05;100460.83;109426;1250;75542;-55